This is the latest recevied weather packets stored in our database for station/object AF9W-5. If no packets are shown the sender has not sent any weather packets the latest 1 day(s).
| Time | Temp. | Humidity | Pressure | Rain* | Wind** | Luminosity | Snow |
|---|---|---|---|---|---|---|---|
| 1778080731 | 17.78° C | 37% | 1015.6 hPa | 0 mm | - | 394 W/m² | - |
| 1778080125 | 17.78° C | 37% | 1015.6 hPa | 0 mm | - | 362 W/m² | - |
| 1778079821 | 17.22° C | 38% | 1015.5 hPa | 0 mm | - | 348 W/m² | - |
| 1778078912 | 17.78° C | 37% | 1015.5 hPa | 0 mm | - | 299 W/m² | - |
| 1778078307 | 17.22° C | 41% | 1015.5 hPa | 0 mm | - | 265 W/m² | - |
| 1778077702 | 16.11° C | 45% | 1015.7 hPa | 0 mm | - | 232 W/m² | - |
| 1778076493 | 16.67° C | 48% | 1015.5 hPa | 0 mm | - | 172 W/m² | - |
| 1778074976 | 13.89° C | 53% | 1015.2 hPa | 0 mm | - | 96 W/m² | - |
| 1778074370 | 12.78° C | 57% | 1015.3 hPa | 0 mm | - | 69 W/m² | - |
| 1778074066 | 12.78° C | 59% | 1015.5 hPa | 0 mm | - | 58 W/m² | - |
| 1778073764 | 12.78° C | 57% | 1015.4 hPa | 0 mm | - | 45 W/m² | - |
| 1778073462 | 12.78° C | 60% | 1015.5 hPa | 0 mm | - | 36 W/m² | - |
| 1778071343 | 8.89° C | 72% | 1015.1 hPa | 0 mm | - | 8 W/m² | - |
| 1778070739 | 8.33° C | 74% | 1015.1 hPa | 0 mm | - | 2 W/m² | - |
| 1778070435 | 8.89° C | 72% | 1015 hPa | 0 mm | - | 1 W/m² | - |
| 1778069830 | 8.89° C | 70% | 1014.7 hPa | 0 mm | - | 0 W/m² | - |
| 1778068620 | 10° C | 67% | 1014.7 hPa | 0 mm | - | 0 W/m² | - |
| 1778067411 | 10° C | 64% | 1014.6 hPa | 0 mm | - | 0 W/m² | - |
| 1778067108 | 10° C | 64% | 1014.6 hPa | 0 mm | - | 0 W/m² | - |
| 1778066199 | 11.11° C | 59% | 1014.4 hPa | 0 mm | - | 0 W/m² | - |
| 1778065594 | 11.11° C | 61% | 1014.6 hPa | 0 mm | - | 0 W/m² | - |
| 1778064383 | 11.11° C | 61% | 1014.1 hPa | 0 mm | - | 0 W/m² | - |
| 1778064080 | 10.56° C | 61% | 1014.2 hPa | 0 mm | - | 0 W/m² | - |
| 1778063777 | 11.11° C | 62% | 1014 hPa | 0 mm | - | 0 W/m² | - |
| 1778063474 | 11.11° C | 60% | 1014.1 hPa | 0 mm | - | 0 W/m² | - |
* Rain latest hour (hover to see other rain measurements)
** Current wind speed in m/s (hover to see current wind gust speed)